Staffordsville, Virginia
Current Conditions -  °F | °C
As of 4:15 AM on Thursday 18 Dec 2014 (Local Time) from KPSK Reporting Station
Clear Clear  
Wind Chill: 25°   Ceiling: Unl
Heat Index: 31°   Visibility: 10mi
Dew Point: 25°   Wind: 7mph
Humidity: 77%   Direction: 280°W
Pressure: 30.12"   Gusts: NA
Location:  37.24°N, 80.72°W
Report Text: KPSK 180915Z AUTO 28006KT 10SM CLR 00/M04 A3012 RMK AO2 T10041040
Loading
Personal Weather Stations






























Interactive Weather Map New forecast layout! Learn more

10-Day Weather Forecast

Advertisements
Track Severe Weather on mobile